sensor_id;sensor_type;location;lat;lon;timestamp;temperature;humidity
6758;DHT22;3416;53.074;8.822;2024-01-16T00:01:05;2.40;99.90
6758;DHT22;3416;53.074;8.822;2024-01-16T00:03:32;2.30;99.90
6758;DHT22;3416;53.074;8.822;2024-01-16T00:06:00;2.30;99.90
6758;DHT22;3416;53.074;8.822;2024-01-16T00:08:27;2.30;99.90
6758;DHT22;3416;53.074;8.822;2024-01-16T00:10:54;2.30;99.90
6758;DHT22;3416;53.074;8.822;2024-01-16T00:13:21;2.30;99.90
6758;DHT22;3416;53.074;8.822;2024-01-16T00:15:48;2.40;99.90
6758;DHT22;3416;53.074;8.822;2024-01-16T00:18:16;2.30;99.90
6758;DHT22;3416;53.074;8.822;2024-01-16T00:20:43;2.20;99.90
6758;DHT22;3416;53.074;8.822;2024-01-16T00:23:12;2.20;99.90
6758;DHT22;3416;53.074;8.822;2024-01-16T00:25:39;2.20;99.90
6758;DHT22;3416;53.074;8.822;2024-01-16T00:28:06;2.10;99.90
6758;DHT22;3416;53.074;8.822;2024-01-16T00:30:33;2.00;99.90
6758;DHT22;3416;53.074;8.822;2024-01-16T00:33:00;2.00;99.90
6758;DHT22;3416;53.074;8.822;2024-01-16T00:35:28;2.00;99.90
6758;DHT22;3416;53.074;8.822;2024-01-16T00:37:55;1.90;99.90
6758;DHT22;3416;53.074;8.822;2024-01-16T00:40:23;2.00;99.90
6758;DHT22;3416;53.074;8.822;2024-01-16T00:42:50;2.00;99.90
6758;DHT22;3416;53.074;8.822;2024-01-16T00:45:17;2.10;99.90
6758;DHT22;3416;53.074;8.822;2024-01-16T00:47:44;2.10;99.90
6758;DHT22;3416;53.074;8.822;2024-01-16T00:50:11;2.20;99.90
6758;DHT22;3416;53.074;8.822;2024-01-16T00:52:38;2.30;99.90
6758;DHT22;3416;53.074;8.822;2024-01-16T00:55:05;2.30;99.90
6758;DHT22;3416;53.074;8.822;2024-01-16T00:57:34;2.30;99.90
6758;DHT22;3416;53.074;8.822;2024-01-16T01:00:01;2.30;99.90
6758;DHT22;3416;53.074;8.822;2024-01-16T01:02:29;2.30;99.90
6758;DHT22;3416;53.074;8.822;2024-01-16T01:04:56;2.40;99.90
6758;DHT22;3416;53.074;8.822;2024-01-16T01:07:23;2.50;99.90
6758;DHT22;3416;53.074;8.822;2024-01-16T01:09:51;2.30;99.90
6758;DHT22;3416;53.074;8.822;2024-01-16T01:12:18;2.30;99.90
6758;DHT22;3416;53.074;8.822;2024-01-16T01:14:46;2.40;99.90
6758;DHT22;3416;53.074;8.822;2024-01-16T01:17:13;2.40;99.90
6758;DHT22;3416;53.074;8.822;2024-01-16T01:19:41;2.40;99.90
6758;DHT22;3416;53.074;8.822;2024-01-16T01:22:08;2.30;99.90
6758;DHT22;3416;53.074;8.822;2024-01-16T01:24:35;2.30;99.90
6758;DHT22;3416;53.074;8.822;2024-01-16T01:27:02;2.20;99.90
6758;DHT22;3416;53.074;8.822;2024-01-16T01:29:29;2.20;99.90
6758;DHT22;3416;53.074;8.822;2024-01-16T01:31:56;2.10;99.90
6758;DHT22;3416;53.074;8.822;2024-01-16T01:34:23;2.00;99.90
6758;DHT22;3416;53.074;8.822;2024-01-16T01:36:50;2.00;99.90
6758;DHT22;3416;53.074;8.822;2024-01-16T01:39:17;2.00;99.90
6758;DHT22;3416;53.074;8.822;2024-01-16T01:41:44;2.00;99.90
6758;DHT22;3416;53.074;8.822;2024-01-16T01:44:11;2.10;99.90
6758;DHT22;3416;53.074;8.822;2024-01-16T01:46:41;2.00;99.90
6758;DHT22;3416;53.074;8.822;2024-01-16T01:49:12;2.00;99.90
6758;DHT22;3416;53.074;8.822;2024-01-16T01:51:40;1.90;99.90
6758;DHT22;3416;53.074;8.822;2024-01-16T01:54:08;1.90;99.90
6758;DHT22;3416;53.074;8.822;2024-01-16T01:56:35;1.80;99.90
6758;DHT22;3416;53.074;8.822;2024-01-16T01:59:03;1.70;99.90
6758;DHT22;3416;53.074;8.822;2024-01-16T02:01:31;1.70;99.90
6758;DHT22;3416;53.074;8.822;2024-01-16T02:03:59;1.70;99.90
6758;DHT22;3416;53.074;8.822;2024-01-16T02:06:28;1.70;99.90
6758;DHT22;3416;53.074;8.822;2024-01-16T02:08:55;1.80;99.90
6758;DHT22;3416;53.074;8.822;2024-01-16T02:11:22;1.80;99.90
6758;DHT22;3416;53.074;8.822;2024-01-16T02:13:48;1.80;99.90
6758;DHT22;3416;53.074;8.822;2024-01-16T02:16:19;1.80;99.90
6758;DHT22;3416;53.074;8.822;2024-01-16T02:18:46;1.70;99.90
6758;DHT22;3416;53.074;8.822;2024-01-16T02:21:17;1.80;99.90
6758;DHT22;3416;53.074;8.822;2024-01-16T02:23:46;1.70;99.90
6758;DHT22;3416;53.074;8.822;2024-01-16T02:26:14;1.70;99.90
6758;DHT22;3416;53.074;8.822;2024-01-16T02:28:41;1.70;99.90
6758;DHT22;3416;53.074;8.822;2024-01-16T02:31:08;1.60;99.90
6758;DHT22;3416;53.074;8.822;2024-01-16T02:33:35;1.50;99.90
6758;DHT22;3416;53.074;8.822;2024-01-16T02:36:02;1.50;99.90
6758;DHT22;3416;53.074;8.822;2024-01-16T02:38:29;1.50;99.90
6758;DHT22;3416;53.074;8.822;2024-01-16T02:40:57;1.60;99.90
6758;DHT22;3416;53.074;8.822;2024-01-16T02:43:24;1.60;99.90
6758;DHT22;3416;53.074;8.822;2024-01-16T02:45:52;1.60;99.90
6758;DHT22;3416;53.074;8.822;2024-01-16T02:48:20;1.70;99.90
6758;DHT22;3416;53.074;8.822;2024-01-16T02:50:47;1.60;99.90
6758;DHT22;3416;53.074;8.822;2024-01-16T02:53:17;1.60;99.90
6758;DHT22;3416;53.074;8.822;2024-01-16T02:55:44;1.60;99.90
6758;DHT22;3416;53.074;8.822;2024-01-16T02:58:12;1.60;99.90
6758;DHT22;3416;53.074;8.822;2024-01-16T03:00:39;1.50;99.90
6758;DHT22;3416;53.074;8.822;2024-01-16T03:03:06;1.40;99.90
6758;DHT22;3416;53.074;8.822;2024-01-16T03:05:33;1.50;99.90
6758;DHT22;3416;53.074;8.822;2024-01-16T03:08:00;1.50;99.90
6758;DHT22;3416;53.074;8.822;2024-01-16T03:10:27;1.50;99.90
6758;DHT22;3416;53.074;8.822;2024-01-16T03:12:54;1.50;99.90
6758;DHT22;3416;53.074;8.822;2024-01-16T03:15:25;1.50;99.90
6758;DHT22;3416;53.074;8.822;2024-01-16T03:17:52;1.40;99.90
6758;DHT22;3416;53.074;8.822;2024-01-16T03:20:19;1.40;99.90
6758;DHT22;3416;53.074;8.822;2024-01-16T03:22:46;1.40;99.90
6758;DHT22;3416;53.074;8.822;2024-01-16T03:25:13;1.30;99.90
6758;DHT22;3416;53.074;8.822;2024-01-16T03:27:40;1.30;99.90
6758;DHT22;3416;53.074;8.822;2024-01-16T03:30:07;1.20;99.90
6758;DHT22;3416;53.074;8.822;2024-01-16T03:32:36;1.20;99.90
6758;DHT22;3416;53.074;8.822;2024-01-16T03:35:05;1.30;99.90
6758;DHT22;3416;53.074;8.822;2024-01-16T03:37:32;1.20;99.90
6758;DHT22;3416;53.074;8.822;2024-01-16T03:40:00;1.20;99.90
6758;DHT22;3416;53.074;8.822;2024-01-16T03:42:27;1.10;99.90
6758;DHT22;3416;53.074;8.822;2024-01-16T03:44:54;1.10;99.90
6758;DHT22;3416;53.074;8.822;2024-01-16T03:47:20;1.00;99.90
6758;DHT22;3416;53.074;8.822;2024-01-16T03:49:50;0.90;99.90
6758;DHT22;3416;53.074;8.822;2024-01-16T03:52:18;0.90;99.90
6758;DHT22;3416;53.074;8.822;2024-01-16T03:54:45;1.00;99.90
6758;DHT22;3416;53.074;8.822;2024-01-16T03:57:11;0.90;99.90
6758;DHT22;3416;53.074;8.822;2024-01-16T03:59:38;0.90;99.90
6758;DHT22;3416;53.074;8.822;2024-01-16T04:02:06;0.80;99.90
6758;DHT22;3416;53.074;8.822;2024-01-16T04:04:34;0.70;99.90
6758;DHT22;3416;53.074;8.822;2024-01-16T04:07:03;0.70;99.90
6758;DHT22;3416;53.074;8.822;2024-01-16T04:09:30;0.70;99.90
6758;DHT22;3416;53.074;8.822;2024-01-16T04:11:57;0.60;99.90
6758;DHT22;3416;53.074;8.822;2024-01-16T04:14:24;0.60;99.90
6758;DHT22;3416;53.074;8.822;2024-01-16T04:16:51;0.50;99.90
6758;DHT22;3416;53.074;8.822;2024-01-16T04:19:18;0.50;99.90
6758;DHT22;3416;53.074;8.822;2024-01-16T04:21:44;0.50;99.90
6758;DHT22;3416;53.074;8.822;2024-01-16T04:24:13;0.50;99.90
6758;DHT22;3416;53.074;8.822;2024-01-16T04:26:40;0.60;99.90
6758;DHT22;3416;53.074;8.822;2024-01-16T04:29:07;0.50;99.90
6758;DHT22;3416;53.074;8.822;2024-01-16T04:31:39;0.40;99.90
6758;DHT22;3416;53.074;8.822;2024-01-16T04:34:06;0.40;99.90
6758;DHT22;3416;53.074;8.822;2024-01-16T04:36:33;0.40;99.90
6758;DHT22;3416;53.074;8.822;2024-01-16T04:39:00;0.30;99.90
6758;DHT22;3416;53.074;8.822;2024-01-16T04:41:31;0.30;99.90
6758;DHT22;3416;53.074;8.822;2024-01-16T04:43:58;0.30;99.90
6758;DHT22;3416;53.074;8.822;2024-01-16T04:46:26;0.40;99.90
6758;DHT22;3416;53.074;8.822;2024-01-16T04:48:53;0.30;99.90
6758;DHT22;3416;53.074;8.822;2024-01-16T04:51:19;0.30;99.90
6758;DHT22;3416;53.074;8.822;2024-01-16T04:53:46;0.30;99.90
6758;DHT22;3416;53.074;8.822;2024-01-16T04:56:12;0.30;99.90
6758;DHT22;3416;53.074;8.822;2024-01-16T04:58:41;0.40;99.90
6758;DHT22;3416;53.074;8.822;2024-01-16T05:01:08;0.40;99.90
6758;DHT22;3416;53.074;8.822;2024-01-16T05:03:35;0.40;99.90
6758;DHT22;3416;53.074;8.822;2024-01-16T05:06:02;0.30;99.90
6758;DHT22;3416;53.074;8.822;2024-01-16T05:08:29;0.30;99.90
6758;DHT22;3416;53.074;8.822;2024-01-16T05:10:58;0.30;99.90
6758;DHT22;3416;53.074;8.822;2024-01-16T05:13:25;0.30;99.90
6758;DHT22;3416;53.074;8.822;2024-01-16T05:15:53;0.30;99.90
6758;DHT22;3416;53.074;8.822;2024-01-16T05:18:20;0.30;99.90
6758;DHT22;3416;53.074;8.822;2024-01-16T05:20:47;0.30;99.90
6758;DHT22;3416;53.074;8.822;2024-01-16T05:23:15;0.30;99.90
6758;DHT22;3416;53.074;8.822;2024-01-16T05:25:43;0.40;99.90
6758;DHT22;3416;53.074;8.822;2024-01-16T05:28:10;0.30;99.90
6758;DHT22;3416;53.074;8.822;2024-01-16T05:30:37;0.40;99.90
6758;DHT22;3416;53.074;8.822;2024-01-16T05:33:07;0.50;99.90
6758;DHT22;3416;53.074;8.822;2024-01-16T05:35:34;0.60;99.90
6758;DHT22;3416;53.074;8.822;2024-01-16T05:38:02;0.70;99.90
6758;DHT22;3416;53.074;8.822;2024-01-16T05:40:29;0.80;99.90
6758;DHT22;3416;53.074;8.822;2024-01-16T05:42:57;0.80;99.90
6758;DHT22;3416;53.074;8.822;2024-01-16T05:45:24;0.80;99.90
6758;DHT22;3416;53.074;8.822;2024-01-16T05:47:51;0.80;99.90
6758;DHT22;3416;53.074;8.822;2024-01-16T05:50:19;0.70;99.90
6758;DHT22;3416;53.074;8.822;2024-01-16T05:52:46;0.70;99.90
6758;DHT22;3416;53.074;8.822;2024-01-16T05:55:13;0.70;99.90
6758;DHT22;3416;53.074;8.822;2024-01-16T05:57:40;0.70;99.90
6758;DHT22;3416;53.074;8.822;2024-01-16T06:00:09;0.60;99.90
6758;DHT22;3416;53.074;8.822;2024-01-16T06:02:36;0.70;99.90
6758;DHT22;3416;53.074;8.822;2024-01-16T06:05:04;0.70;99.90
6758;DHT22;3416;53.074;8.822;2024-01-16T06:07:32;0.80;99.90
6758;DHT22;3416;53.074;8.822;2024-01-16T06:09:59;0.90;99.90
6758;DHT22;3416;53.074;8.822;2024-01-16T06:12:27;0.90;99.90
6758;DHT22;3416;53.074;8.822;2024-01-16T06:14:54;0.90;99.90
6758;DHT22;3416;53.074;8.822;2024-01-16T06:17:21;0.90;99.90
6758;DHT22;3416;53.074;8.822;2024-01-16T06:19:48;1.00;99.90
6758;DHT22;3416;53.074;8.822;2024-01-16T06:22:15;0.90;99.90
6758;DHT22;3416;53.074;8.822;2024-01-16T06:24:43;0.90;99.90
6758;DHT22;3416;53.074;8.822;2024-01-16T06:27:10;1.00;99.90
6758;DHT22;3416;53.074;8.822;2024-01-16T06:29:44;1.00;99.90
6758;DHT22;3416;53.074;8.822;2024-01-16T06:32:11;1.00;99.90
6758;DHT22;3416;53.074;8.822;2024-01-16T06:34:38;1.20;99.90
6758;DHT22;3416;53.074;8.822;2024-01-16T06:37:05;1.10;99.90
6758;DHT22;3416;53.074;8.822;2024-01-16T06:39:33;1.10;99.90
6758;DHT22;3416;53.074;8.822;2024-01-16T06:42:02;1.10;99.90
6758;DHT22;3416;53.074;8.822;2024-01-16T06:44:30;1.20;99.90
6758;DHT22;3416;53.074;8.822;2024-01-16T06:46:57;1.10;99.90
6758;DHT22;3416;53.074;8.822;2024-01-16T06:49:24;1.10;99.90
6758;DHT22;3416;53.074;8.822;2024-01-16T06:51:52;1.10;99.90
6758;DHT22;3416;53.074;8.822;2024-01-16T06:54:19;1.00;99.90
6758;DHT22;3416;53.074;8.822;2024-01-16T06:56:49;1.10;99.90
6758;DHT22;3416;53.074;8.822;2024-01-16T06:59:18;1.00;99.90
6758;DHT22;3416;53.074;8.822;2024-01-16T07:01:47;0.90;99.90
6758;DHT22;3416;53.074;8.822;2024-01-16T07:04:14;0.90;99.90
6758;DHT22;3416;53.074;8.822;2024-01-16T07:06:41;0.90;99.90
6758;DHT22;3416;53.074;8.822;2024-01-16T07:09:09;0.90;99.90
6758;DHT22;3416;53.074;8.822;2024-01-16T07:11:37;0.80;99.90
6758;DHT22;3416;53.074;8.822;2024-01-16T07:14:07;0.90;99.90
6758;DHT22;3416;53.074;8.822;2024-01-16T07:16:35;0.90;99.90
6758;DHT22;3416;53.074;8.822;2024-01-16T07:19:02;0.90;99.90
6758;DHT22;3416;53.074;8.822;2024-01-16T07:21:29;0.90;99.90
6758;DHT22;3416;53.074;8.822;2024-01-16T07:23:56;0.90;99.90
6758;DHT22;3416;53.074;8.822;2024-01-16T07:26:23;0.90;99.90
6758;DHT22;3416;53.074;8.822;2024-01-16T07:28:51;0.90;99.90
6758;DHT22;3416;53.074;8.822;2024-01-16T07:31:17;0.90;99.90
6758;DHT22;3416;53.074;8.822;2024-01-16T07:33:46;0.90;99.90
6758;DHT22;3416;53.074;8.822;2024-01-16T07:36:14;0.90;99.90
6758;DHT22;3416;53.074;8.822;2024-01-16T07:38:41;1.00;99.90
6758;DHT22;3416;53.074;8.822;2024-01-16T07:41:08;1.00;99.90
6758;DHT22;3416;53.074;8.822;2024-01-16T07:43:35;1.00;99.90
6758;DHT22;3416;53.074;8.822;2024-01-16T07:46:02;1.00;99.90
6758;DHT22;3416;53.074;8.822;2024-01-16T07:48:29;1.10;99.90
6758;DHT22;3416;53.074;8.822;2024-01-16T07:50:58;1.10;99.90
6758;DHT22;3416;53.074;8.822;2024-01-16T07:53:24;1.10;99.90
6758;DHT22;3416;53.074;8.822;2024-01-16T07:55:53;1.10;99.90
6758;DHT22;3416;53.074;8.822;2024-01-16T07:58:21;1.30;99.90
6758;DHT22;3416;53.074;8.822;2024-01-16T08:00:48;1.20;99.90
6758;DHT22;3416;53.074;8.822;2024-01-16T08:03:15;1.20;99.90
6758;DHT22;3416;53.074;8.822;2024-01-16T08:05:42;1.30;99.90
6758;DHT22;3416;53.074;8.822;2024-01-16T08:08:11;1.30;99.90
6758;DHT22;3416;53.074;8.822;2024-01-16T08:10:39;1.30;99.90
6758;DHT22;3416;53.074;8.822;2024-01-16T08:13:07;1.40;99.90
6758;DHT22;3416;53.074;8.822;2024-01-16T08:15:34;1.40;99.90
6758;DHT22;3416;53.074;8.822;2024-01-16T08:18:02;1.50;99.90
6758;DHT22;3416;53.074;8.822;2024-01-16T08:20:29;1.50;99.90
6758;DHT22;3416;53.074;8.822;2024-01-16T08:22:57;1.60;99.90
6758;DHT22;3416;53.074;8.822;2024-01-16T08:25:26;1.60;99.90
6758;DHT22;3416;53.074;8.822;2024-01-16T08:27:53;1.60;99.90
6758;DHT22;3416;53.074;8.822;2024-01-16T08:30:20;1.60;99.90
6758;DHT22;3416;53.074;8.822;2024-01-16T08:32:46;1.60;99.90
6758;DHT22;3416;53.074;8.822;2024-01-16T08:35:13;1.70;99.90
6758;DHT22;3416;53.074;8.822;2024-01-16T08:37:40;1.60;99.90
6758;DHT22;3416;53.074;8.822;2024-01-16T08:40:08;1.60;99.90
6758;DHT22;3416;53.074;8.822;2024-01-16T08:42:38;1.60;99.90
6758;DHT22;3416;53.074;8.822;2024-01-16T08:45:06;1.60;99.90
6758;DHT22;3416;53.074;8.822;2024-01-16T08:47:33;1.70;99.90
6758;DHT22;3416;53.074;8.822;2024-01-16T08:50:00;1.70;99.90
6758;DHT22;3416;53.074;8.822;2024-01-16T08:52:27;1.70;99.90
6758;DHT22;3416;53.074;8.822;2024-01-16T08:54:54;1.80;99.90
6758;DHT22;3416;53.074;8.822;2024-01-16T08:57:21;1.90;99.90
6758;DHT22;3416;53.074;8.822;2024-01-16T08:59:49;2.00;99.90
6758;DHT22;3416;53.074;8.822;2024-01-16T09:02:16;2.00;99.90
6758;DHT22;3416;53.074;8.822;2024-01-16T09:04:43;1.90;99.90
6758;DHT22;3416;53.074;8.822;2024-01-16T09:07:11;1.90;99.90
6758;DHT22;3416;53.074;8.822;2024-01-16T09:09:41;1.90;99.90
6758;DHT22;3416;53.074;8.822;2024-01-16T09:12:08;2.00;99.90
6758;DHT22;3416;53.074;8.822;2024-01-16T09:14:35;2.00;99.90
6758;DHT22;3416;53.074;8.822;2024-01-16T09:17:04;2.00;99.90
6758;DHT22;3416;53.074;8.822;2024-01-16T09:19:31;2.10;99.90
6758;DHT22;3416;53.074;8.822;2024-01-16T09:21:58;2.10;99.90
6758;DHT22;3416;53.074;8.822;2024-01-16T09:24:25;2.00;99.90
6758;DHT22;3416;53.074;8.822;2024-01-16T09:26:52;2.00;99.90
6758;DHT22;3416;53.074;8.822;2024-01-16T09:29:18;2.00;99.90
6758;DHT22;3416;53.074;8.822;2024-01-16T09:31:47;2.10;99.90
6758;DHT22;3416;53.074;8.822;2024-01-16T09:34:15;2.70;99.90
6758;DHT22;3416;53.074;8.822;2024-01-16T09:36:42;2.80;99.90
6758;DHT22;3416;53.074;8.822;2024-01-16T09:39:09;2.70;99.90
6758;DHT22;3416;53.074;8.822;2024-01-16T09:41:37;2.90;99.90
6758;DHT22;3416;53.074;8.822;2024-01-16T09:44:05;2.90;99.90
6758;DHT22;3416;53.074;8.822;2024-01-16T09:46:34;3.00;99.90
6758;DHT22;3416;53.074;8.822;2024-01-16T09:49:03;3.00;99.90
6758;DHT22;3416;53.074;8.822;2024-01-16T09:51:32;3.20;99.90
6758;DHT22;3416;53.074;8.822;2024-01-16T09:53:59;3.20;99.90
6758;DHT22;3416;53.074;8.822;2024-01-16T09:56:27;3.10;99.90
6758;DHT22;3416;53.074;8.822;2024-01-16T09:59:00;3.20;99.90
6758;DHT22;3416;53.074;8.822;2024-01-16T10:01:28;3.40;99.90
6758;DHT22;3416;53.074;8.822;2024-01-16T10:03:56;3.60;99.90
6758;DHT22;3416;53.074;8.822;2024-01-16T10:06:24;3.50;99.90
6758;DHT22;3416;53.074;8.822;2024-01-16T10:08:54;3.30;99.90
6758;DHT22;3416;53.074;8.822;2024-01-16T10:11:21;3.30;99.90
6758;DHT22;3416;53.074;8.822;2024-01-16T10:13:48;3.20;99.90
6758;DHT22;3416;53.074;8.822;2024-01-16T10:16:15;3.30;99.90
6758;DHT22;3416;53.074;8.822;2024-01-16T10:18:42;3.20;99.90
6758;DHT22;3416;53.074;8.822;2024-01-16T10:21:21;3.30;99.90
6758;DHT22;3416;53.074;8.822;2024-01-16T10:23:49;3.40;99.90
6758;DHT22;3416;53.074;8.822;2024-01-16T10:26:17;3.60;99.90
6758;DHT22;3416;53.074;8.822;2024-01-16T10:28:45;3.90;99.90
6758;DHT22;3416;53.074;8.822;2024-01-16T10:31:13;3.80;99.90
6758;DHT22;3416;53.074;8.822;2024-01-16T10:33:40;3.80;99.90
6758;DHT22;3416;53.074;8.822;2024-01-16T10:36:09;3.60;99.90
6758;DHT22;3416;53.074;8.822;2024-01-16T10:38:37;3.70;99.90
6758;DHT22;3416;53.074;8.822;2024-01-16T10:41:06;3.60;99.90
6758;DHT22;3416;53.074;8.822;2024-01-16T10:43:34;3.70;99.90
6758;DHT22;3416;53.074;8.822;2024-01-16T10:46:11;3.70;99.90
6758;DHT22;3416;53.074;8.822;2024-01-16T10:48:40;3.80;99.90
6758;DHT22;3416;53.074;8.822;2024-01-16T10:51:08;3.90;99.90
6758;DHT22;3416;53.074;8.822;2024-01-16T10:53:37;3.90;99.90
6758;DHT22;3416;53.074;8.822;2024-01-16T10:56:10;3.90;99.90
6758;DHT22;3416;53.074;8.822;2024-01-16T10:58:40;3.80;99.90
6758;DHT22;3416;53.074;8.822;2024-01-16T11:01:10;3.90;99.90
6758;DHT22;3416;53.074;8.822;2024-01-16T11:03:41;4.00;99.90
6758;DHT22;3416;53.074;8.822;2024-01-16T11:06:10;3.90;99.90
6758;DHT22;3416;53.074;8.822;2024-01-16T11:08:39;3.60;99.90
6758;DHT22;3416;53.074;8.822;2024-01-16T11:11:07;3.40;99.90
6758;DHT22;3416;53.074;8.822;2024-01-16T11:13:36;3.40;99.90
6758;DHT22;3416;53.074;8.822;2024-01-16T11:16:05;3.30;99.90
6758;DHT22;3416;53.074;8.822;2024-01-16T11:18:34;3.40;99.90
6758;DHT22;3416;53.074;8.822;2024-01-16T11:21:04;3.50;99.90
6758;DHT22;3416;53.074;8.822;2024-01-16T11:23:31;3.40;99.90
6758;DHT22;3416;53.074;8.822;2024-01-16T11:25:58;3.30;99.90
6758;DHT22;3416;53.074;8.822;2024-01-16T11:28:28;3.20;99.90
6758;DHT22;3416;53.074;8.822;2024-01-16T11:30:56;3.10;99.90
6758;DHT22;3416;53.074;8.822;2024-01-16T11:33:43;3.20;99.90
6758;DHT22;3416;53.074;8.822;2024-01-16T11:36:50;3.20;99.90
6758;DHT22;3416;53.074;8.822;2024-01-16T11:39:20;3.10;99.90
6758;DHT22;3416;53.074;8.822;2024-01-16T11:41:52;3.00;99.90
6758;DHT22;3416;53.074;8.822;2024-01-16T11:44:42;2.90;99.90
6758;DHT22;3416;53.074;8.822;2024-01-16T11:47:16;2.70;99.90
6758;DHT22;3416;53.074;8.822;2024-01-16T11:49:45;2.70;99.90
6758;DHT22;3416;53.074;8.822;2024-01-16T11:52:12;2.60;99.90
6758;DHT22;3416;53.074;8.822;2024-01-16T11:54:39;2.40;99.90
6758;DHT22;3416;53.074;8.822;2024-01-16T11:57:36;2.40;99.90
6758;DHT22;3416;53.074;8.822;2024-01-16T12:00:19;2.40;99.90
6758;DHT22;3416;53.074;8.822;2024-01-16T12:02:52;2.40;99.90
6758;DHT22;3416;53.074;8.822;2024-01-16T12:05:21;2.60;99.90
6758;DHT22;3416;53.074;8.822;2024-01-16T12:07:49;2.60;99.90
6758;DHT22;3416;53.074;8.822;2024-01-16T12:10:18;2.60;99.90
6758;DHT22;3416;53.074;8.822;2024-01-16T12:12:46;2.60;99.90
6758;DHT22;3416;53.074;8.822;2024-01-16T12:15:14;2.70;99.90
6758;DHT22;3416;53.074;8.822;2024-01-16T12:17:58;2.60;99.90
6758;DHT22;3416;53.074;8.822;2024-01-16T12:20:29;2.60;99.90
6758;DHT22;3416;53.074;8.822;2024-01-16T12:22:58;2.50;99.90
6758;DHT22;3416;53.074;8.822;2024-01-16T12:25:25;2.50;99.90
6758;DHT22;3416;53.074;8.822;2024-01-16T12:27:57;2.50;99.90
6758;DHT22;3416;53.074;8.822;2024-01-16T12:30:25;2.60;99.90
6758;DHT22;3416;53.074;8.822;2024-01-16T12:33:03;2.80;99.90
6758;DHT22;3416;53.074;8.822;2024-01-16T12:35:34;2.70;99.90
6758;DHT22;3416;53.074;8.822;2024-01-16T12:38:01;2.70;99.90
6758;DHT22;3416;53.074;8.822;2024-01-16T12:40:29;2.70;99.90
6758;DHT22;3416;53.074;8.822;2024-01-16T12:42:56;2.60;99.90
6758;DHT22;3416;53.074;8.822;2024-01-16T12:45:23;2.60;99.90
6758;DHT22;3416;53.074;8.822;2024-01-16T12:47:51;2.50;99.90
6758;DHT22;3416;53.074;8.822;2024-01-16T12:50:20;2.50;99.90
6758;DHT22;3416;53.074;8.822;2024-01-16T12:52:48;2.50;99.90
6758;DHT22;3416;53.074;8.822;2024-01-16T12:55:16;2.60;99.90
6758;DHT22;3416;53.074;8.822;2024-01-16T12:57:44;2.60;99.90
6758;DHT22;3416;53.074;8.822;2024-01-16T13:00:22;2.60;99.90
6758;DHT22;3416;53.074;8.822;2024-01-16T13:02:50;2.60;99.90
6758;DHT22;3416;53.074;8.822;2024-01-16T13:05:18;2.70;99.90
6758;DHT22;3416;53.074;8.822;2024-01-16T13:07:45;2.60;99.90
6758;DHT22;3416;53.074;8.822;2024-01-16T13:10:14;2.60;99.90
6758;DHT22;3416;53.074;8.822;2024-01-16T13:12:44;2.70;99.90
6758;DHT22;3416;53.074;8.822;2024-01-16T13:15:11;2.70;99.90
6758;DHT22;3416;53.074;8.822;2024-01-16T13:17:42;2.70;99.90
6758;DHT22;3416;53.074;8.822;2024-01-16T13:20:09;2.70;99.90
6758;DHT22;3416;53.074;8.822;2024-01-16T13:22:38;2.70;99.90
6758;DHT22;3416;53.074;8.822;2024-01-16T13:25:06;2.70;99.90
6758;DHT22;3416;53.074;8.822;2024-01-16T13:27:34;2.80;99.90
6758;DHT22;3416;53.074;8.822;2024-01-16T13:30:02;2.80;99.90
6758;DHT22;3416;53.074;8.822;2024-01-16T13:32:29;2.80;99.90
6758;DHT22;3416;53.074;8.822;2024-01-16T13:34:56;2.70;99.90
6758;DHT22;3416;53.074;8.822;2024-01-16T13:37:23;2.80;99.90
6758;DHT22;3416;53.074;8.822;2024-01-16T13:39:50;2.80;99.90
6758;DHT22;3416;53.074;8.822;2024-01-16T13:42:17;2.80;99.90
6758;DHT22;3416;53.074;8.822;2024-01-16T13:44:47;2.80;99.90
6758;DHT22;3416;53.074;8.822;2024-01-16T13:47:15;2.70;99.90
6758;DHT22;3416;53.074;8.822;2024-01-16T13:49:44;2.70;99.90
6758;DHT22;3416;53.074;8.822;2024-01-16T13:52:11;2.80;99.90
6758;DHT22;3416;53.074;8.822;2024-01-16T13:54:38;2.70;99.90
6758;DHT22;3416;53.074;8.822;2024-01-16T13:57:06;2.70;99.90
6758;DHT22;3416;53.074;8.822;2024-01-16T13:59:33;2.70;99.90
6758;DHT22;3416;53.074;8.822;2024-01-16T14:02:02;2.70;99.90
6758;DHT22;3416;53.074;8.822;2024-01-16T14:04:29;2.70;99.90
6758;DHT22;3416;53.074;8.822;2024-01-16T14:06:56;2.80;99.90
6758;DHT22;3416;53.074;8.822;2024-01-16T14:09:23;2.70;99.90
6758;DHT22;3416;53.074;8.822;2024-01-16T14:11:50;2.70;99.90
6758;DHT22;3416;53.074;8.822;2024-01-16T14:14:17;2.80;99.90
6758;DHT22;3416;53.074;8.822;2024-01-16T14:16:44;2.70;99.90
6758;DHT22;3416;53.074;8.822;2024-01-16T14:19:16;2.70;99.90
6758;DHT22;3416;53.074;8.822;2024-01-16T14:21:43;2.60;99.90
6758;DHT22;3416;53.074;8.822;2024-01-16T14:24:10;2.60;99.90
6758;DHT22;3416;53.074;8.822;2024-01-16T14:26:37;2.50;99.90
6758;DHT22;3416;53.074;8.822;2024-01-16T14:29:04;2.50;99.90
6758;DHT22;3416;53.074;8.822;2024-01-16T14:31:32;2.50;99.90
6758;DHT22;3416;53.074;8.822;2024-01-16T14:33:59;2.60;99.90
6758;DHT22;3416;53.074;8.822;2024-01-16T14:36:28;2.50;99.90
6758;DHT22;3416;53.074;8.822;2024-01-16T14:38:54;2.50;99.90
6758;DHT22;3416;53.074;8.822;2024-01-16T14:41:21;2.50;99.90
6758;DHT22;3416;53.074;8.822;2024-01-16T14:43:48;2.50;99.90
6758;DHT22;3416;53.074;8.822;2024-01-16T14:46:15;2.60;99.90
6758;DHT22;3416;53.074;8.822;2024-01-16T14:48:44;2.60;99.90
6758;DHT22;3416;53.074;8.822;2024-01-16T14:51:11;2.60;99.90
6758;DHT22;3416;53.074;8.822;2024-01-16T14:53:39;2.50;99.90
6758;DHT22;3416;53.074;8.822;2024-01-16T14:56:06;2.40;99.90
6758;DHT22;3416;53.074;8.822;2024-01-16T14:58:33;2.30;99.90
6758;DHT22;3416;53.074;8.822;2024-01-16T15:01:00;2.30;99.90
6758;DHT22;3416;53.074;8.822;2024-01-16T15:03:27;2.30;99.90
6758;DHT22;3416;53.074;8.822;2024-01-16T15:05:54;2.20;99.90
6758;DHT22;3416;53.074;8.822;2024-01-16T15:08:21;2.10;99.90
6758;DHT22;3416;53.074;8.822;2024-01-16T15:10:50;2.10;99.90
6758;DHT22;3416;53.074;8.822;2024-01-16T15:13:17;2.10;99.90
6758;DHT22;3416;53.074;8.822;2024-01-16T15:15:44;2.10;99.90
6758;DHT22;3416;53.074;8.822;2024-01-16T15:18:10;2.00;99.90
6758;DHT22;3416;53.074;8.822;2024-01-16T15:20:39;1.90;99.90
6758;DHT22;3416;53.074;8.822;2024-01-16T15:23:06;1.90;99.90
6758;DHT22;3416;53.074;8.822;2024-01-16T15:25:33;1.90;99.90
6758;DHT22;3416;53.074;8.822;2024-01-16T15:28:01;1.90;99.90
6758;DHT22;3416;53.074;8.822;2024-01-16T15:30:29;1.90;99.90
6758;DHT22;3416;53.074;8.822;2024-01-16T15:32:58;1.80;99.90
6758;DHT22;3416;53.074;8.822;2024-01-16T15:35:25;1.80;99.90
6758;DHT22;3416;53.074;8.822;2024-01-16T15:37:52;1.80;99.90
6758;DHT22;3416;53.074;8.822;2024-01-16T15:40:20;1.80;99.90
6758;DHT22;3416;53.074;8.822;2024-01-16T15:42:47;1.80;99.90
6758;DHT22;3416;53.074;8.822;2024-01-16T15:45:15;1.80;99.90
6758;DHT22;3416;53.074;8.822;2024-01-16T15:47:42;1.80;99.90
6758;DHT22;3416;53.074;8.822;2024-01-16T15:50:09;1.80;99.90
6758;DHT22;3416;53.074;8.822;2024-01-16T15:52:37;1.80;99.90
6758;DHT22;3416;53.074;8.822;2024-01-16T15:55:04;1.80;99.90
6758;DHT22;3416;53.074;8.822;2024-01-16T15:57:31;1.80;99.90
6758;DHT22;3416;53.074;8.822;2024-01-16T15:59:58;1.90;99.90
6758;DHT22;3416;53.074;8.822;2024-01-16T16:02:27;1.90;99.90
6758;DHT22;3416;53.074;8.822;2024-01-16T16:04:54;2.00;99.90
6758;DHT22;3416;53.074;8.822;2024-01-16T16:07:20;1.90;99.90
6758;DHT22;3416;53.074;8.822;2024-01-16T16:09:48;2.00;99.90
6758;DHT22;3416;53.074;8.822;2024-01-16T16:12:15;1.90;99.90
6758;DHT22;3416;53.074;8.822;2024-01-16T16:14:42;1.90;99.90
6758;DHT22;3416;53.074;8.822;2024-01-16T16:17:09;2.00;99.90
6758;DHT22;3416;53.074;8.822;2024-01-16T16:19:37;1.90;99.90
6758;DHT22;3416;53.074;8.822;2024-01-16T16:22:06;1.90;99.90